sensor_id;sensor_type;location;lat;lon;timestamp;temperature;humidity
10891;DHT22;5498;50.928;11.598;2022-08-11T00:00:58;19.70;56.00
10891;DHT22;5498;50.928;11.598;2022-08-11T00:04:03;19.70;55.70
10891;DHT22;5498;50.928;11.598;2022-08-11T00:07:06;19.70;55.60
10891;DHT22;5498;50.928;11.598;2022-08-11T00:10:11;19.70;55.40
10891;DHT22;5498;50.928;11.598;2022-08-11T00:13:14;19.70;55.10
10891;DHT22;5498;50.928;11.598;2022-08-11T00:16:19;19.60;54.90
10891;DHT22;5498;50.928;11.598;2022-08-11T00:19:25;19.60;55.20
10891;DHT22;5498;50.928;11.598;2022-08-11T00:22:29;19.50;55.80
10891;DHT22;5498;50.928;11.598;2022-08-11T00:25:37;19.50;56.30
10891;DHT22;5498;50.928;11.598;2022-08-11T00:28:41;19.40;56.50
10891;DHT22;5498;50.928;11.598;2022-08-11T00:31:45;19.30;56.70
10891;DHT22;5498;50.928;11.598;2022-08-11T00:34:50;19.30;57.00
10891;DHT22;5498;50.928;11.598;2022-08-11T00:37:53;19.20;56.90
10891;DHT22;5498;50.928;11.598;2022-08-11T00:41:03;19.10;57.10
10891;DHT22;5498;50.928;11.598;2022-08-11T00:44:20;19.10;57.40
10891;DHT22;5498;50.928;11.598;2022-08-11T00:47:42;19.00;57.60
10891;DHT22;5498;50.928;11.598;2022-08-11T00:50:59;19.00;57.90
10891;DHT22;5498;50.928;11.598;2022-08-11T00:54:25;19.00;58.20
10891;DHT22;5498;50.928;11.598;2022-08-11T01:01:45;18.90;58.20
10891;DHT22;5498;50.928;11.598;2022-08-11T01:09:23;18.80;58.40
10891;DHT22;5498;50.928;11.598;2022-08-11T01:12:43;18.70;58.40
10891;DHT22;5498;50.928;11.598;2022-08-11T01:20:08;18.60;58.80
10891;DHT22;5498;50.928;11.598;2022-08-11T01:23:50;18.60;58.90
10891;DHT22;5498;50.928;11.598;2022-08-11T01:35:47;18.40;59.00
10891;DHT22;5498;50.928;11.598;2022-08-11T01:39:46;18.30;59.30
10891;DHT22;5498;50.928;11.598;2022-08-11T01:43:39;18.20;59.50
10891;DHT22;5498;50.928;11.598;2022-08-11T01:47:22;18.10;59.70
10891;DHT22;5498;50.928;11.598;2022-08-11T01:51:02;18.10;59.70
10891;DHT22;5498;50.928;11.598;2022-08-11T01:54:19;18.10;60.20
10891;DHT22;5498;50.928;11.598;2022-08-11T01:57:32;18.00;60.40
10891;DHT22;5498;50.928;11.598;2022-08-11T02:00:53;18.00;60.70
10891;DHT22;5498;50.928;11.598;2022-08-11T02:04:12;18.00;60.70
10891;DHT22;5498;50.928;11.598;2022-08-11T02:07:25;18.00;60.60
10891;DHT22;5498;50.928;11.598;2022-08-11T02:10:37;18.00;60.70
10891;DHT22;5498;50.928;11.598;2022-08-11T02:14:09;18.00;60.80
10891;DHT22;5498;50.928;11.598;2022-08-11T02:17:18;18.00;61.00
10891;DHT22;5498;50.928;11.598;2022-08-11T02:20:25;17.90;61.10
10891;DHT22;5498;50.928;11.598;2022-08-11T02:23:53;17.80;61.00
10891;DHT22;5498;50.928;11.598;2022-08-11T02:27:03;17.80;61.10
10891;DHT22;5498;50.928;11.598;2022-08-11T02:30:10;17.70;61.10
10891;DHT22;5498;50.928;11.598;2022-08-11T02:33:22;17.70;61.20
10891;DHT22;5498;50.928;11.598;2022-08-11T02:36:37;17.80;61.40
10891;DHT22;5498;50.928;11.598;2022-08-11T02:39:56;17.70;61.60
10891;DHT22;5498;50.928;11.598;2022-08-11T02:43:10;17.60;61.80
10891;DHT22;5498;50.928;11.598;2022-08-11T02:46:26;17.50;61.70
10891;DHT22;5498;50.928;11.598;2022-08-11T02:49:51;17.50;61.80
10891;DHT22;5498;50.928;11.598;2022-08-11T02:53:10;17.50;61.80
10891;DHT22;5498;50.928;11.598;2022-08-11T02:56:30;17.40;61.70
10891;DHT22;5498;50.928;11.598;2022-08-11T02:59:46;17.40;61.80
10891;DHT22;5498;50.928;11.598;2022-08-11T03:03:06;17.40;61.90
10891;DHT22;5498;50.928;11.598;2022-08-11T03:06:26;17.30;62.10
10891;DHT22;5498;50.928;11.598;2022-08-11T03:09:42;17.30;62.10
10891;DHT22;5498;50.928;11.598;2022-08-11T03:12:52;17.30;62.30
10891;DHT22;5498;50.928;11.598;2022-08-11T03:16:20;17.20;62.40
10891;DHT22;5498;50.928;11.598;2022-08-11T03:19:52;17.20;62.50
10891;DHT22;5498;50.928;11.598;2022-08-11T03:23:06;17.10;62.90
10891;DHT22;5498;50.928;11.598;2022-08-11T03:26:23;17.10;62.80
10891;DHT22;5498;50.928;11.598;2022-08-11T03:29:34;17.20;62.80
10891;DHT22;5498;50.928;11.598;2022-08-11T03:32:49;17.10;62.70
10891;DHT22;5498;50.928;11.598;2022-08-11T03:36:14;17.10;62.90
10891;DHT22;5498;50.928;11.598;2022-08-11T03:39:37;17.10;63.00
10891;DHT22;5498;50.928;11.598;2022-08-11T03:42:53;17.10;63.10
10891;DHT22;5498;50.928;11.598;2022-08-11T03:46:03;17.00;63.00
10891;DHT22;5498;50.928;11.598;2022-08-11T03:49:28;17.00;62.90
10891;DHT22;5498;50.928;11.598;2022-08-11T03:52:47;17.00;62.80
10891;DHT22;5498;50.928;11.598;2022-08-11T03:56:20;16.90;63.20
10891;DHT22;5498;50.928;11.598;2022-08-11T04:03:51;16.80;63.70
10891;DHT22;5498;50.928;11.598;2022-08-11T04:07:27;16.70;63.80
10891;DHT22;5498;50.928;11.598;2022-08-11T04:11:13;16.70;64.10
10891;DHT22;5498;50.928;11.598;2022-08-11T04:19:28;16.60;64.30
10891;DHT22;5498;50.928;11.598;2022-08-11T04:23:12;16.50;64.50
10891;DHT22;5498;50.928;11.598;2022-08-11T04:26:49;16.40;64.70
10891;DHT22;5498;50.928;11.598;2022-08-11T04:30:17;16.40;64.80
10891;DHT22;5498;50.928;11.598;2022-08-11T04:33:34;16.30;64.90
10891;DHT22;5498;50.928;11.598;2022-08-11T04:37:09;16.40;65.00
10891;DHT22;5498;50.928;11.598;2022-08-11T04:40:48;16.40;65.00
10891;DHT22;5498;50.928;11.598;2022-08-11T04:44:33;16.50;64.90
10891;DHT22;5498;50.928;11.598;2022-08-11T04:48:12;16.70;64.50
10891;DHT22;5498;50.928;11.598;2022-08-11T04:51:59;16.90;64.00
10891;DHT22;5498;50.928;11.598;2022-08-11T04:55:54;17.10;64.10
10891;DHT22;5498;50.928;11.598;2022-08-11T05:00:03;17.10;63.00
10891;DHT22;5498;50.928;11.598;2022-08-11T05:03:52;17.20;62.80
10891;DHT22;5498;50.928;11.598;2022-08-11T05:07:50;17.30;62.80
10891;DHT22;5498;50.928;11.598;2022-08-11T05:11:34;17.40;62.50
10891;DHT22;5498;50.928;11.598;2022-08-11T05:14:48;17.50;62.10
10891;DHT22;5498;50.928;11.598;2022-08-11T05:18:13;17.70;61.80
10891;DHT22;5498;50.928;11.598;2022-08-11T05:21:35;17.90;61.50
10891;DHT22;5498;50.928;11.598;2022-08-11T05:25:01;18.00;61.00
10891;DHT22;5498;50.928;11.598;2022-08-11T05:28:30;18.20;60.60
10891;DHT22;5498;50.928;11.598;2022-08-11T05:31:56;18.40;60.20
10891;DHT22;5498;50.928;11.598;2022-08-11T05:35:24;18.60;59.70
10891;DHT22;5498;50.928;11.598;2022-08-11T05:38:31;18.90;59.30
10891;DHT22;5498;50.928;11.598;2022-08-11T05:41:56;19.10;58.70
10891;DHT22;5498;50.928;11.598;2022-08-11T05:45:17;19.40;58.40
10891;DHT22;5498;50.928;11.598;2022-08-11T05:48:38;19.70;57.50
10891;DHT22;5498;50.928;11.598;2022-08-11T05:52:02;20.10;56.70
10891;DHT22;5498;50.928;11.598;2022-08-11T05:55:23;20.40;56.10
10891;DHT22;5498;50.928;11.598;2022-08-11T05:58:48;20.50;55.80
10891;DHT22;5498;50.928;11.598;2022-08-11T06:01:51;20.70;55.40
10891;DHT22;5498;50.928;11.598;2022-08-11T06:04:56;20.90;55.00
10891;DHT22;5498;50.928;11.598;2022-08-11T06:07:58;21.10;54.40
10891;DHT22;5498;50.928;11.598;2022-08-11T06:11:03;21.20;54.10
10891;DHT22;5498;50.928;11.598;2022-08-11T06:14:07;21.30;54.10
10891;DHT22;5498;50.928;11.598;2022-08-11T06:17:11;21.60;54.00
10891;DHT22;5498;50.928;11.598;2022-08-11T06:20:15;21.80;53.40
10891;DHT22;5498;50.928;11.598;2022-08-11T06:23:20;22.10;52.70
10891;DHT22;5498;50.928;11.598;2022-08-11T06:26:23;22.30;52.30
10891;DHT22;5498;50.928;11.598;2022-08-11T06:29:27;22.50;51.80
10891;DHT22;5498;50.928;11.598;2022-08-11T06:32:32;22.70;51.20
10891;DHT22;5498;50.928;11.598;2022-08-11T06:35:44;22.80;50.80
10891;DHT22;5498;50.928;11.598;2022-08-11T06:38:57;22.90;50.40
10891;DHT22;5498;50.928;11.598;2022-08-11T06:42:06;23.10;50.20
10891;DHT22;5498;50.928;11.598;2022-08-11T06:45:25;23.30;50.10
10891;DHT22;5498;50.928;11.598;2022-08-11T06:48:31;23.60;49.90
10891;DHT22;5498;50.928;11.598;2022-08-11T06:51:34;23.80;49.50
10891;DHT22;5498;50.928;11.598;2022-08-11T06:54:49;23.90;48.60
10891;DHT22;5498;50.928;11.598;2022-08-11T06:57:54;24.00;48.20
10891;DHT22;5498;50.928;11.598;2022-08-11T07:01:20;24.10;48.20
10891;DHT22;5498;50.928;11.598;2022-08-11T07:04:31;24.30;48.60
10891;DHT22;5498;50.928;11.598;2022-08-11T07:08:08;24.60;48.00
10891;DHT22;5498;50.928;11.598;2022-08-11T07:11:54;24.80;47.60
10891;DHT22;5498;50.928;11.598;2022-08-11T07:15:18;25.20;47.20
10891;DHT22;5498;50.928;11.598;2022-08-11T07:18:40;25.40;46.70
10891;DHT22;5498;50.928;11.598;2022-08-11T07:22:00;26.00;46.60
10891;DHT22;5498;50.928;11.598;2022-08-11T07:25:22;25.90;46.10
10891;DHT22;5498;50.928;11.598;2022-08-11T07:28:46;26.20;45.70
10891;DHT22;5498;50.928;11.598;2022-08-11T07:32:08;26.60;45.60
10891;DHT22;5498;50.928;11.598;2022-08-11T07:35:19;27.00;44.70
10891;DHT22;5498;50.928;11.598;2022-08-11T07:38:25;27.60;44.20
10891;DHT22;5498;50.928;11.598;2022-08-11T07:41:42;27.30;43.50
10891;DHT22;5498;50.928;11.598;2022-08-11T07:44:47;27.50;43.50
10891;DHT22;5498;50.928;11.598;2022-08-11T07:48:08;28.00;43.60
10891;DHT22;5498;50.928;11.598;2022-08-11T07:51:29;27.90;43.00
10891;DHT22;5498;50.928;11.598;2022-08-11T07:54:50;28.10;42.70
10891;DHT22;5498;50.928;11.598;2022-08-11T07:57:52;28.40;42.20
10891;DHT22;5498;50.928;11.598;2022-08-11T08:01:18;28.60;42.10
10891;DHT22;5498;50.928;11.598;2022-08-11T08:04:40;28.80;41.90
10891;DHT22;5498;50.928;11.598;2022-08-11T08:08:01;28.90;41.30
10891;DHT22;5498;50.928;11.598;2022-08-11T08:11:22;28.90;40.30
10891;DHT22;5498;50.928;11.598;2022-08-11T08:14:42;29.10;40.80
10891;DHT22;5498;50.928;11.598;2022-08-11T08:18:02;29.60;40.80
10891;DHT22;5498;50.928;11.598;2022-08-11T08:21:06;29.60;40.30
10891;DHT22;5498;50.928;11.598;2022-08-11T08:24:20;29.80;40.20
10891;DHT22;5498;50.928;11.598;2022-08-11T08:27:23;30.10;40.10
10891;DHT22;5498;50.928;11.598;2022-08-11T08:30:27;30.40;39.70
10891;DHT22;5498;50.928;11.598;2022-08-11T08:33:49;30.60;39.60
10891;DHT22;5498;50.928;11.598;2022-08-11T08:36:52;30.80;39.30
10891;DHT22;5498;50.928;11.598;2022-08-11T08:39:55;31.00;38.50
10891;DHT22;5498;50.928;11.598;2022-08-11T08:43:02;31.20;38.20
10891;DHT22;5498;50.928;11.598;2022-08-11T08:46:08;31.40;38.90
10891;DHT22;5498;50.928;11.598;2022-08-11T08:49:14;31.70;38.00
10891;DHT22;5498;50.928;11.598;2022-08-11T08:52:20;31.70;37.90
10891;DHT22;5498;50.928;11.598;2022-08-11T08:55:27;31.90;38.20
10891;DHT22;5498;50.928;11.598;2022-08-11T08:58:30;32.00;38.00
10891;DHT22;5498;50.928;11.598;2022-08-11T09:01:39;32.10;37.70
10891;DHT22;5498;50.928;11.598;2022-08-11T09:04:45;32.30;37.50
10891;DHT22;5498;50.928;11.598;2022-08-11T09:07:49;32.50;37.10
10891;DHT22;5498;50.928;11.598;2022-08-11T09:10:55;32.70;36.80
10891;DHT22;5498;50.928;11.598;2022-08-11T09:14:16;32.80;36.90
10891;DHT22;5498;50.928;11.598;2022-08-11T09:17:19;33.00;36.50
10891;DHT22;5498;50.928;11.598;2022-08-11T09:20:24;33.10;35.10
10891;DHT22;5498;50.928;11.598;2022-08-11T09:23:28;33.20;35.00
10891;DHT22;5498;50.928;11.598;2022-08-11T09:26:52;33.20;35.20
10891;DHT22;5498;50.928;11.598;2022-08-11T09:30:04;33.10;34.20
10891;DHT22;5498;50.928;11.598;2022-08-11T09:33:08;33.00;34.00
10891;DHT22;5498;50.928;11.598;2022-08-11T09:36:12;32.40;34.80
10891;DHT22;5498;50.928;11.598;2022-08-11T09:39:36;32.00;36.00
10891;DHT22;5498;50.928;11.598;2022-08-11T09:42:58;31.80;36.40
10891;DHT22;5498;50.928;11.598;2022-08-11T09:46:23;31.80;36.00
10891;DHT22;5498;50.928;11.598;2022-08-11T09:49:28;31.40;35.30
10891;DHT22;5498;50.928;11.598;2022-08-11T09:52:35;31.00;35.80
10891;DHT22;5498;50.928;11.598;2022-08-11T09:55:38;30.60;34.80
10891;DHT22;5498;50.928;11.598;2022-08-11T09:58:43;30.30;35.40
10891;DHT22;5498;50.928;11.598;2022-08-11T10:01:46;29.90;35.00
10891;DHT22;5498;50.928;11.598;2022-08-11T10:04:51;29.60;35.80
10891;DHT22;5498;50.928;11.598;2022-08-11T10:08:18;29.30;35.70
10891;DHT22;5498;50.928;11.598;2022-08-11T10:11:22;29.10;36.40
10891;DHT22;5498;50.928;11.598;2022-08-11T10:14:29;29.00;36.90
10891;DHT22;5498;50.928;11.598;2022-08-11T10:17:53;29.10;36.50
10891;DHT22;5498;50.928;11.598;2022-08-11T10:21:23;28.80;36.80
10891;DHT22;5498;50.928;11.598;2022-08-11T10:24:27;28.80;37.00
10891;DHT22;5498;50.928;11.598;2022-08-11T10:27:48;29.10;36.50
10891;DHT22;5498;50.928;11.598;2022-08-11T10:30:56;28.40;37.00
10891;DHT22;5498;50.928;11.598;2022-08-11T10:34:16;28.40;37.60
10891;DHT22;5498;50.928;11.598;2022-08-11T10:37:21;28.30;37.40
10891;DHT22;5498;50.928;11.598;2022-08-11T10:40:25;28.30;38.30
10891;DHT22;5498;50.928;11.598;2022-08-11T10:43:28;28.10;38.20
10891;DHT22;5498;50.928;11.598;2022-08-11T10:46:30;28.70;37.90
10891;DHT22;5498;50.928;11.598;2022-08-11T10:49:51;28.50;37.40
10891;DHT22;5498;50.928;11.598;2022-08-11T10:53:08;28.70;37.30
10891;DHT22;5498;50.928;11.598;2022-08-11T10:56:29;28.60;37.10
10891;DHT22;5498;50.928;11.598;2022-08-11T10:59:52;28.40;37.40
10891;DHT22;5498;50.928;11.598;2022-08-11T11:02:55;28.50;38.20
10891;DHT22;5498;50.928;11.598;2022-08-11T11:06:08;28.50;37.90
10891;DHT22;5498;50.928;11.598;2022-08-11T11:09:23;28.40;37.90
10891;DHT22;5498;50.928;11.598;2022-08-11T11:12:30;28.30;38.20
10891;DHT22;5498;50.928;11.598;2022-08-11T11:15:51;28.50;38.20
10891;DHT22;5498;50.928;11.598;2022-08-11T11:19:22;28.60;36.30
10891;DHT22;5498;50.928;11.598;2022-08-11T11:22:27;28.40;36.80
10891;DHT22;5498;50.928;11.598;2022-08-11T11:26:01;28.40;37.00
10891;DHT22;5498;50.928;11.598;2022-08-11T11:29:30;28.40;37.00
10891;DHT22;5498;50.928;11.598;2022-08-11T11:32:48;28.90;37.50
10891;DHT22;5498;50.928;11.598;2022-08-11T11:36:09;28.60;37.40
10891;DHT22;5498;50.928;11.598;2022-08-11T11:39:16;28.60;37.30
10891;DHT22;5498;50.928;11.598;2022-08-11T11:42:20;28.90;37.00
10891;DHT22;5498;50.928;11.598;2022-08-11T11:45:24;28.90;37.00
10891;DHT22;5498;50.928;11.598;2022-08-11T11:48:26;28.90;37.00
10891;DHT22;5498;50.928;11.598;2022-08-11T11:51:30;28.60;36.80
10891;DHT22;5498;50.928;11.598;2022-08-11T11:54:33;28.30;37.20
10891;DHT22;5498;50.928;11.598;2022-08-11T11:57:36;28.20;37.40
10891;DHT22;5498;50.928;11.598;2022-08-11T12:00:56;28.20;37.50
10891;DHT22;5498;50.928;11.598;2022-08-11T12:04:16;27.90;37.60
10891;DHT22;5498;50.928;11.598;2022-08-11T12:07:20;27.80;38.00
10891;DHT22;5498;50.928;11.598;2022-08-11T12:10:43;28.10;37.80
10891;DHT22;5498;50.928;11.598;2022-08-11T12:13:47;27.80;37.50
10891;DHT22;5498;50.928;11.598;2022-08-11T12:16:50;27.80;37.40
10891;DHT22;5498;50.928;11.598;2022-08-11T12:19:52;27.90;37.30
10891;DHT22;5498;50.928;11.598;2022-08-11T12:22:55;27.50;37.40
10891;DHT22;5498;50.928;11.598;2022-08-11T12:26:16;27.60;37.70
10891;DHT22;5498;50.928;11.598;2022-08-11T12:29:37;28.00;37.50
10891;DHT22;5498;50.928;11.598;2022-08-11T12:32:39;27.90;37.00
10891;DHT22;5498;50.928;11.598;2022-08-11T12:35:43;27.70;37.00
10891;DHT22;5498;50.928;11.598;2022-08-11T12:38:49;27.80;37.50
10891;DHT22;5498;50.928;11.598;2022-08-11T12:41:52;28.20;37.70
10891;DHT22;5498;50.928;11.598;2022-08-11T12:45:12;27.90;37.20
10891;DHT22;5498;50.928;11.598;2022-08-11T12:48:33;28.30;37.40
10891;DHT22;5498;50.928;11.598;2022-08-11T12:51:55;28.00;37.40
10891;DHT22;5498;50.928;11.598;2022-08-11T12:55:03;28.10;37.40
10891;DHT22;5498;50.928;11.598;2022-08-11T12:58:09;27.90;37.20
10891;DHT22;5498;50.928;11.598;2022-08-11T13:01:16;27.90;37.20
10891;DHT22;5498;50.928;11.598;2022-08-11T13:04:38;28.00;37.00
10891;DHT22;5498;50.928;11.598;2022-08-11T13:08:01;28.00;37.70
10891;DHT22;5498;50.928;11.598;2022-08-11T13:11:06;27.80;38.00
10891;DHT22;5498;50.928;11.598;2022-08-11T13:14:26;27.80;38.00
10891;DHT22;5498;50.928;11.598;2022-08-11T13:17:28;28.20;38.00
10891;DHT22;5498;50.928;11.598;2022-08-11T13:20:34;28.30;37.80
10891;DHT22;5498;50.928;11.598;2022-08-11T13:23:38;27.80;37.40
10891;DHT22;5498;50.928;11.598;2022-08-11T13:26:42;27.90;37.80
10891;DHT22;5498;50.928;11.598;2022-08-11T13:29:45;27.90;37.30
10891;DHT22;5498;50.928;11.598;2022-08-11T13:32:47;27.90;37.30
10891;DHT22;5498;50.928;11.598;2022-08-11T13:35:52;27.90;37.20
10891;DHT22;5498;50.928;11.598;2022-08-11T13:38:56;27.80;37.10
10891;DHT22;5498;50.928;11.598;2022-08-11T13:42:01;27.90;37.00
10891;DHT22;5498;50.928;11.598;2022-08-11T13:45:06;27.70;37.00
10891;DHT22;5498;50.928;11.598;2022-08-11T13:48:09;27.70;37.20
10891;DHT22;5498;50.928;11.598;2022-08-11T13:51:13;27.70;36.90
10891;DHT22;5498;50.928;11.598;2022-08-11T13:54:35;27.60;36.50
10891;DHT22;5498;50.928;11.598;2022-08-11T13:57:40;27.70;37.00
10891;DHT22;5498;50.928;11.598;2022-08-11T14:00:46;28.20;37.30
10891;DHT22;5498;50.928;11.598;2022-08-11T14:03:50;27.90;37.30
10891;DHT22;5498;50.928;11.598;2022-08-11T14:06:53;27.80;36.90
10891;DHT22;5498;50.928;11.598;2022-08-11T14:09:59;27.80;37.20
10891;DHT22;5498;50.928;11.598;2022-08-11T14:13:07;27.70;36.30
10891;DHT22;5498;50.928;11.598;2022-08-11T14:16:30;27.70;36.50
10891;DHT22;5498;50.928;11.598;2022-08-11T14:19:38;27.70;36.70
10891;DHT22;5498;50.928;11.598;2022-08-11T14:22:42;27.90;37.00
10891;DHT22;5498;50.928;11.598;2022-08-11T14:25:46;28.00;36.70
10891;DHT22;5498;50.928;11.598;2022-08-11T14:29:07;27.80;36.20
10891;DHT22;5498;50.928;11.598;2022-08-11T14:32:12;27.70;36.50
10891;DHT22;5498;50.928;11.598;2022-08-11T14:35:14;27.60;36.50
10891;DHT22;5498;50.928;11.598;2022-08-11T14:38:17;27.60;36.30
10891;DHT22;5498;50.928;11.598;2022-08-11T14:41:20;27.60;36.90
10891;DHT22;5498;50.928;11.598;2022-08-11T14:44:44;28.00;37.10
10891;DHT22;5498;50.928;11.598;2022-08-11T14:48:08;27.70;36.90
10891;DHT22;5498;50.928;11.598;2022-08-11T14:51:11;27.70;36.70
10891;DHT22;5498;50.928;11.598;2022-08-11T14:54:14;27.70;36.30
10891;DHT22;5498;50.928;11.598;2022-08-11T14:57:36;27.70;36.70
10891;DHT22;5498;50.928;11.598;2022-08-11T15:00:41;27.80;36.40
10891;DHT22;5498;50.928;11.598;2022-08-11T15:03:44;27.80;36.50
10891;DHT22;5498;50.928;11.598;2022-08-11T15:06:46;28.20;36.60
10891;DHT22;5498;50.928;11.598;2022-08-11T15:09:48;27.70;36.20
10891;DHT22;5498;50.928;11.598;2022-08-11T15:12:50;27.80;36.50
10891;DHT22;5498;50.928;11.598;2022-08-11T15:15:54;27.80;37.50
10891;DHT22;5498;50.928;11.598;2022-08-11T15:19:13;27.80;36.00
10891;DHT22;5498;50.928;11.598;2022-08-11T15:22:16;27.60;36.20
10891;DHT22;5498;50.928;11.598;2022-08-11T15:25:36;27.50;35.80
10891;DHT22;5498;50.928;11.598;2022-08-11T15:28:43;27.60;36.30
10891;DHT22;5498;50.928;11.598;2022-08-11T15:32:09;27.70;36.20
10891;DHT22;5498;50.928;11.598;2022-08-11T15:35:40;27.80;35.90
10891;DHT22;5498;50.928;11.598;2022-08-11T15:39:06;27.70;35.80
10891;DHT22;5498;50.928;11.598;2022-08-11T15:42:16;27.70;36.00
10891;DHT22;5498;50.928;11.598;2022-08-11T15:45:37;27.70;36.60
10891;DHT22;5498;50.928;11.598;2022-08-11T15:48:55;28.30;37.00
10891;DHT22;5498;50.928;11.598;2022-08-11T15:52:02;27.80;36.80
10891;DHT22;5498;50.928;11.598;2022-08-11T15:55:07;27.70;36.80
10891;DHT22;5498;50.928;11.598;2022-08-11T15:58:11;27.80;36.80
10891;DHT22;5498;50.928;11.598;2022-08-11T16:01:33;27.70;36.80
10891;DHT22;5498;50.928;11.598;2022-08-11T16:04:56;27.80;37.50
10891;DHT22;5498;50.928;11.598;2022-08-11T16:07:59;27.70;36.80
10891;DHT22;5498;50.928;11.598;2022-08-11T16:11:02;28.10;37.10
10891;DHT22;5498;50.928;11.598;2022-08-11T16:14:05;28.10;37.40
10891;DHT22;5498;50.928;11.598;2022-08-11T16:17:30;27.80;37.10
10891;DHT22;5498;50.928;11.598;2022-08-11T16:20:35;28.00;37.00
10891;DHT22;5498;50.928;11.598;2022-08-11T16:23:39;27.90;36.70
10891;DHT22;5498;50.928;11.598;2022-08-11T16:26:44;27.60;36.50
10891;DHT22;5498;50.928;11.598;2022-08-11T16:29:49;27.60;36.40
10891;DHT22;5498;50.928;11.598;2022-08-11T16:32:53;27.60;36.40
10891;DHT22;5498;50.928;11.598;2022-08-11T16:35:57;27.90;36.70
10891;DHT22;5498;50.928;11.598;2022-08-11T16:39:16;27.50;36.40
10891;DHT22;5498;50.928;11.598;2022-08-11T16:42:21;27.50;36.70
10891;DHT22;5498;50.928;11.598;2022-08-11T16:45:41;27.50;36.90
10891;DHT22;5498;50.928;11.598;2022-08-11T16:49:04;27.40;36.70
10891;DHT22;5498;50.928;11.598;2022-08-11T16:52:09;27.40;37.10
10891;DHT22;5498;50.928;11.598;2022-08-11T16:55:12;27.70;37.40
10891;DHT22;5498;50.928;11.598;2022-08-11T16:58:15;27.30;37.50
10891;DHT22;5498;50.928;11.598;2022-08-11T17:01:51;27.20;37.90
10891;DHT22;5498;50.928;11.598;2022-08-11T17:04:55;27.20;38.10
10891;DHT22;5498;50.928;11.598;2022-08-11T17:08:17;27.30;38.10
10891;DHT22;5498;50.928;11.598;2022-08-11T17:11:43;27.30;38.30
10891;DHT22;5498;50.928;11.598;2022-08-11T17:15:08;27.40;38.30
10891;DHT22;5498;50.928;11.598;2022-08-11T17:18:44;27.40;38.20
10891;DHT22;5498;50.928;11.598;2022-08-11T17:21:50;27.40;38.50
10891;DHT22;5498;50.928;11.598;2022-08-11T17:25:18;27.30;38.40
10891;DHT22;5498;50.928;11.598;2022-08-11T17:28:21;27.30;38.20
10891;DHT22;5498;50.928;11.598;2022-08-11T17:31:25;27.20;38.40
10891;DHT22;5498;50.928;11.598;2022-08-11T17:34:47;27.30;39.20
10891;DHT22;5498;50.928;11.598;2022-08-11T17:38:10;27.20;38.60
10891;DHT22;5498;50.928;11.598;2022-08-11T17:41:15;27.20;38.80
10891;DHT22;5498;50.928;11.598;2022-08-11T17:44:36;27.10;38.70
10891;DHT22;5498;50.928;11.598;2022-08-11T17:48:12;27.00;38.70
10891;DHT22;5498;50.928;11.598;2022-08-11T17:51:27;27.00;38.70
10891;DHT22;5498;50.928;11.598;2022-08-11T17:54:50;27.10;38.70
10891;DHT22;5498;50.928;11.598;2022-08-11T17:58:12;26.90;38.90
10891;DHT22;5498;50.928;11.598;2022-08-11T18:01:34;27.00;39.00
10891;DHT22;5498;50.928;11.598;2022-08-11T18:04:39;27.00;38.90
10891;DHT22;5498;50.928;11.598;2022-08-11T18:07:42;27.10;39.10
10891;DHT22;5498;50.928;11.598;2022-08-11T18:11:05;27.10;39.40
10891;DHT22;5498;50.928;11.598;2022-08-11T18:14:27;27.10;39.40
10891;DHT22;5498;50.928;11.598;2022-08-11T18:17:47;27.10;39.40
10891;DHT22;5498;50.928;11.598;2022-08-11T18:21:07;27.10;39.30
10891;DHT22;5498;50.928;11.598;2022-08-11T18:24:32;27.00;39.40
10891;DHT22;5498;50.928;11.598;2022-08-11T18:27:55;26.90;39.60
10891;DHT22;5498;50.928;11.598;2022-08-11T18:31:17;27.10;40.00
10891;DHT22;5498;50.928;11.598;2022-08-11T18:34:40;26.50;40.00
10891;DHT22;5498;50.928;11.598;2022-08-11T18:38:02;26.40;40.30
10891;DHT22;5498;50.928;11.598;2022-08-11T18:41:22;26.70;41.00
10891;DHT22;5498;50.928;11.598;2022-08-11T18:44:44;26.30;40.70
10891;DHT22;5498;50.928;11.598;2022-08-11T18:48:10;26.20;40.90
10891;DHT22;5498;50.928;11.598;2022-08-11T18:51:32;26.20;41.30
10891;DHT22;5498;50.928;11.598;2022-08-11T18:54:58;26.00;41.20
10891;DHT22;5498;50.928;11.598;2022-08-11T18:58:22;26.30;41.80
10891;DHT22;5498;50.928;11.598;2022-08-11T19:01:46;26.20;42.30
10891;DHT22;5498;50.928;11.598;2022-08-11T19:05:09;25.80;42.30
10891;DHT22;5498;50.928;11.598;2022-08-11T19:08:33;25.80;42.40
10891;DHT22;5498;50.928;11.598;2022-08-11T19:11:56;25.70;42.30
10891;DHT22;5498;50.928;11.598;2022-08-11T19:15:16;25.60;43.30
10891;DHT22;5498;50.928;11.598;2022-08-11T19:18:37;25.50;42.70
10891;DHT22;5498;50.928;11.598;2022-08-11T19:21:59;25.50;42.90
10891;DHT22;5498;50.928;11.598;2022-08-11T19:25:21;25.50;42.60
10891;DHT22;5498;50.928;11.598;2022-08-11T19:28:47;25.50;43.80
10891;DHT22;5498;50.928;11.598;2022-08-11T19:32:08;25.40;44.50
10891;DHT22;5498;50.928;11.598;2022-08-11T19:35:29;25.30;43.50
10891;DHT22;5498;50.928;11.598;2022-08-11T19:38:51;25.10;43.00
10891;DHT22;5498;50.928;11.598;2022-08-11T19:42:11;25.00;43.10
10891;DHT22;5498;50.928;11.598;2022-08-11T19:45:32;24.90;43.20
10891;DHT22;5498;50.928;11.598;2022-08-11T19:48:54;25.30;43.90
10891;DHT22;5498;50.928;11.598;2022-08-11T19:52:16;24.80;44.80
10891;DHT22;5498;50.928;11.598;2022-08-11T19:55:38;24.70;44.90
10891;DHT22;5498;50.928;11.598;2022-08-11T19:58:58;24.70;44.50
10891;DHT22;5498;50.928;11.598;2022-08-11T20:02:18;24.60;44.80
10891;DHT22;5498;50.928;11.598;2022-08-11T20:05:39;24.50;45.80
10891;DHT22;5498;50.928;11.598;2022-08-11T20:09:00;24.40;45.70
10891;DHT22;5498;50.928;11.598;2022-08-11T20:12:26;24.30;46.40
10891;DHT22;5498;50.928;11.598;2022-08-11T20:15:47;24.20;46.80
10891;DHT22;5498;50.928;11.598;2022-08-11T20:19:07;24.20;46.90
10891;DHT22;5498;50.928;11.598;2022-08-11T20:22:28;24.10;46.80
10891;DHT22;5498;50.928;11.598;2022-08-11T20:25:49;24.10;46.90
10891;DHT22;5498;50.928;11.598;2022-08-11T20:29:10;23.90;46.60
10891;DHT22;5498;50.928;11.598;2022-08-11T20:32:30;23.80;47.00
10891;DHT22;5498;50.928;11.598;2022-08-11T20:35:50;23.80;47.10
10891;DHT22;5498;50.928;11.598;2022-08-11T20:39:10;23.70;47.20
10891;DHT22;5498;50.928;11.598;2022-08-11T20:42:34;23.70;47.20
10891;DHT22;5498;50.928;11.598;2022-08-11T20:45:58;23.60;47.10
10891;DHT22;5498;50.928;11.598;2022-08-11T20:49:20;23.50;47.20
10891;DHT22;5498;50.928;11.598;2022-08-11T20:52:41;23.50;47.30
10891;DHT22;5498;50.928;11.598;2022-08-11T20:56:03;23.40;47.40
10891;DHT22;5498;50.928;11.598;2022-08-11T20:59:23;23.30;47.80
10891;DHT22;5498;50.928;11.598;2022-08-11T21:02:46;23.20;48.00
10891;DHT22;5498;50.928;11.598;2022-08-11T21:06:07;23.20;47.90